Sherman, Wisconsin
Current Conditions -  °F | °C
As of 7:15 PM on Saturday 22 Nov 2014 (Local Time) from KPBH Reporting Station
Haze Haze  
Wind Chill: 29°   Ceiling: 200
Heat Index: 33°   Visibility: 1.7mi
Dew Point: 33°   Wind: 5mph
Humidity: 100%   Direction: 170°S
Pressure: 29.65"   Gusts: NA
Location:  45.9599°N, 90.2362°W
Report Text: KPBH 230115Z AUTO 17004KT 1 3/4SM BR OVC002 01/01 A2965 RMK AO2 T00050005
Loading
Personal Weather Stations






























Interactive Weather Map New forecast layout! Learn more

10-Day Weather Forecast

Advertisements
Track Severe Weather on mobile